createdAt,value
2022-11-07T00:02:33.346Z,11.20
2022-11-07T00:05:20.885Z,10.40
2022-11-07T00:08:09.342Z,10.50
2022-11-07T00:10:56.388Z,10.40
2022-11-07T00:13:43.708Z,10.40
2022-11-07T00:16:30.816Z,10.40
2022-11-07T00:19:19.843Z,10.40
2022-11-07T00:22:07.506Z,10.40
2022-11-07T00:24:57.050Z,10.40
2022-11-07T00:27:44.913Z,10.40
2022-11-07T00:30:32.617Z,10.40
2022-11-07T00:33:20.830Z,10.40
2022-11-07T00:36:09.137Z,10.40
2022-11-07T00:38:56.895Z,10.40
2022-11-07T00:41:47.747Z,10.40
2022-11-07T00:44:35.480Z,10.40
2022-11-07T00:47:23.049Z,10.30
2022-11-07T00:50:11.740Z,10.40
2022-11-07T00:52:59.183Z,10.40
2022-11-07T00:55:48.047Z,10.40
2022-11-07T00:58:37.211Z,10.40
2022-11-07T01:01:28.827Z,10.40
2022-11-07T01:04:33.664Z,10.50
2022-11-07T01:07:21.700Z,10.50
2022-11-07T01:10:09.935Z,10.40
2022-11-07T01:12:57.813Z,10.50
2022-11-07T01:15:47.249Z,10.50
2022-11-07T01:18:34.529Z,10.50
2022-11-07T01:21:22.507Z,10.50
2022-11-07T01:24:11.368Z,10.50
2022-11-07T01:26:59.028Z,10.60
2022-11-07T01:29:46.733Z,10.60
2022-11-07T01:32:36.136Z,10.60
2022-11-07T01:35:24.559Z,10.60
2022-11-07T01:38:12.286Z,10.60
2022-11-07T01:41:17.567Z,10.60
2022-11-07T01:44:25.641Z,10.70
2022-11-07T01:47:13.585Z,10.70
2022-11-07T01:50:03.017Z,10.70
2022-11-07T01:52:52.231Z,10.70
2022-11-07T01:55:40.058Z,10.70
2022-11-07T01:58:28.508Z,10.80
2022-11-07T02:01:16.678Z,10.70
2022-11-07T02:04:07.541Z,10.70
2022-11-07T02:06:59.596Z,10.70
2022-11-07T02:09:47.767Z,10.70
2022-11-07T02:12:35.590Z,10.80
2022-11-07T02:15:23.734Z,10.80
2022-11-07T02:18:11.685Z,10.80
2022-11-07T02:21:01.640Z,10.80
2022-11-07T02:23:53.395Z,10.70
2022-11-07T02:26:43.496Z,10.70
2022-11-07T02:29:31.926Z,10.70
2022-11-07T02:32:19.974Z,10.70
2022-11-07T02:35:09.027Z,10.70
2022-11-07T02:37:57.023Z,10.80
2022-11-07T02:40:45.838Z,10.70
2022-11-07T02:43:36.307Z,10.80
2022-11-07T02:46:23.990Z,10.80
2022-11-07T02:49:12.049Z,12.10
2022-11-07T02:51:59.323Z,10.70
2022-11-07T02:54:47.512Z,10.80
2022-11-07T02:57:35.180Z,10.70
2022-11-07T03:00:23.960Z,10.70
2022-11-07T03:03:11.588Z,10.70
2022-11-07T03:05:59.948Z,10.70
2022-11-07T03:08:50.126Z,10.70
2022-11-07T03:11:37.721Z,10.70
2022-11-07T03:14:25.322Z,10.70
2022-11-07T03:17:15.046Z,10.70
2022-11-07T03:20:03.108Z,10.70
2022-11-07T03:22:50.261Z,10.70
2022-11-07T03:25:37.754Z,10.80
2022-11-07T03:28:25.967Z,10.80
2022-11-07T03:31:14.025Z,10.80
2022-11-07T03:34:02.884Z,10.80
2022-11-07T03:36:50.501Z,10.80
2022-11-07T03:39:38.247Z,10.80
2022-11-07T03:42:25.981Z,10.90
2022-11-07T03:45:14.452Z,10.90
2022-11-07T03:48:02.445Z,10.80
2022-11-07T03:50:51.470Z,10.80
2022-11-07T03:53:39.884Z,10.80
2022-11-07T03:56:27.820Z,10.80
2022-11-07T03:59:14.861Z,10.80
2022-11-07T04:02:02.917Z,10.90
2022-11-07T04:04:50.883Z,10.90
2022-11-07T04:07:40.291Z,10.90
2022-11-07T04:10:27.617Z,10.90
2022-11-07T04:13:34.120Z,10.90
2022-11-07T04:16:38.629Z,10.90
2022-11-07T04:19:26.568Z,11.00
2022-11-07T04:22:13.922Z,11.00
2022-11-07T04:25:03.023Z,11.00
2022-11-07T04:27:49.554Z,11.10
2022-11-07T04:30:37.684Z,11.10
2022-11-07T04:33:25.090Z,11.10
2022-11-07T04:36:12.836Z,11.10
2022-11-07T04:39:00.852Z,11.10
2022-11-07T04:41:49.789Z,11.10
2022-11-07T04:44:37.445Z,11.10
2022-11-07T04:47:25.119Z,11.10
2022-11-07T04:50:13.397Z,11.20
2022-11-07T04:53:00.995Z,11.20
2022-11-07T04:55:48.950Z,11.20
2022-11-07T04:58:37.792Z,11.30
2022-11-07T05:01:25.641Z,11.30
2022-11-07T05:04:13.483Z,11.30
2022-11-07T05:07:00.659Z,11.40
2022-11-07T05:09:48.117Z,11.30
2022-11-07T05:12:36.667Z,11.40
2022-11-07T05:15:25.567Z,11.30
2022-11-07T05:18:13.980Z,11.30
2022-11-07T05:21:01.544Z,11.30
2022-11-07T05:23:47.990Z,11.20
2022-11-07T05:26:36.257Z,11.30
2022-11-07T05:29:24.109Z,11.30
2022-11-07T05:32:13.533Z,11.30
2022-11-07T05:35:01.300Z,11.80
2022-11-07T05:37:49.061Z,11.60
2022-11-07T05:40:37.588Z,11.30
2022-11-07T05:43:25.769Z,11.30
2022-11-07T05:46:13.120Z,11.20
2022-11-07T05:49:02.285Z,11.20
2022-11-07T05:51:49.594Z,11.20
2022-11-07T05:54:36.882Z,10.60
2022-11-07T05:57:24.188Z,11.20
2022-11-07T06:00:12.871Z,11.10
2022-11-07T06:03:01.060Z,11.20
2022-11-07T06:05:49.852Z,11.20
2022-11-07T06:08:38.125Z,11.20
2022-11-07T06:11:25.910Z,11.20
2022-11-07T06:14:13.894Z,11.20
2022-11-07T06:17:01.692Z,11.30
2022-11-07T06:19:49.044Z,11.30
2022-11-07T06:22:38.246Z,11.30
2022-11-07T06:25:26.033Z,11.30
2022-11-07T06:28:14.812Z,11.40
2022-11-07T06:31:02.833Z,11.40
2022-11-07T06:33:50.759Z,11.40
2022-11-07T06:36:38.602Z,11.50
2022-11-07T06:39:28.074Z,11.50
2022-11-07T06:42:15.634Z,11.40
2022-11-07T06:45:02.950Z,11.50
2022-11-07T06:47:50.408Z,11.40
2022-11-07T06:50:39.081Z,11.60
2022-11-07T06:53:26.947Z,11.30
2022-11-07T06:56:16.559Z,11.30
2022-11-07T06:59:04.157Z,11.40
2022-11-07T07:01:51.844Z,11.30
2022-11-07T07:04:39.716Z,11.40
2022-11-07T07:07:26.842Z,11.40
2022-11-07T07:10:14.881Z,11.40
2022-11-07T07:13:04.104Z,11.40
2022-11-07T07:15:55.307Z,11.40
2022-11-07T07:18:42.425Z,11.50
2022-11-07T07:21:30.310Z,11.50
2022-11-07T07:24:18.582Z,11.50
2022-11-07T07:27:07.134Z,11.50
2022-11-07T07:29:56.273Z,11.50
2022-11-07T07:32:43.927Z,11.60
2022-11-07T07:35:32.680Z,11.60
2022-11-07T07:38:20.415Z,11.60
2022-11-07T07:41:07.924Z,11.70
2022-11-07T07:43:55.353Z,11.70
2022-11-07T07:46:43.981Z,11.70
2022-11-07T07:49:31.427Z,12.60
2022-11-07T07:52:19.123Z,11.80
2022-11-07T07:55:08.261Z,11.80
2022-11-07T07:57:56.181Z,11.90
2022-11-07T08:00:43.456Z,11.90
2022-11-07T08:03:50.590Z,11.90
2022-11-07T08:06:39.824Z,11.90
2022-11-07T08:09:27.744Z,12.00
2022-11-07T08:12:15.514Z,12.00
2022-11-07T08:15:03.529Z,12.00
2022-11-07T08:17:51.616Z,12.00
2022-11-07T08:20:41.537Z,12.10
2022-11-07T08:23:30.628Z,12.10
2022-11-07T08:26:18.122Z,12.10
2022-11-07T08:29:06.285Z,12.20
2022-11-07T08:31:53.995Z,12.30
2022-11-07T08:34:41.350Z,12.30
2022-11-07T08:37:30.512Z,12.40
2022-11-07T08:40:18.195Z,12.50
2022-11-07T08:43:05.574Z,12.60
2022-11-07T08:45:53.816Z,12.70
2022-11-07T08:48:42.241Z,12.80
2022-11-07T08:51:29.695Z,12.90
2022-11-07T08:54:19.165Z,13.00
2022-11-07T08:57:06.716Z,13.10
2022-11-07T08:59:54.739Z,13.20
2022-11-07T09:03:30.849Z,13.20
2022-11-07T09:05:50.331Z,13.10
2022-11-07T09:08:38.211Z,13.20
2022-11-07T09:11:27.416Z,13.20
2022-11-07T09:14:14.647Z,13.20
2022-11-07T09:17:02.613Z,13.20
2022-11-07T09:19:50.643Z,13.30
2022-11-07T09:22:38.116Z,13.30
2022-11-07T09:25:26.143Z,13.40
2022-11-07T09:28:16.107Z,13.40
2022-11-07T09:31:05.092Z,13.40
2022-11-07T09:33:54.435Z,13.40
2022-11-07T09:36:41.872Z,13.30
2022-11-07T09:39:30.333Z,13.40
2022-11-07T09:42:21.659Z,13.50
2022-11-07T09:45:13.245Z,13.60
2022-11-07T09:48:01.847Z,13.90
2022-11-07T09:50:49.920Z,13.80
2022-11-07T09:53:40.268Z,13.70
2022-11-07T09:56:29.215Z,13.80
2022-11-07T09:59:20.705Z,13.90
2022-11-07T10:02:15.735Z,14.00
2022-11-07T10:05:04.452Z,14.20
2022-11-07T10:07:59.722Z,14.20
2022-11-07T10:10:51.121Z,14.40
2022-11-07T10:13:48.297Z,14.40
2022-11-07T10:16:47.803Z,14.40
2022-11-07T10:19:47.710Z,14.50
2022-11-07T10:22:43.157Z,14.50
2022-11-07T10:25:35.191Z,14.50
2022-11-07T10:28:23.687Z,14.50
2022-11-07T10:31:12.153Z,14.50
2022-11-07T10:34:01.641Z,14.40
2022-11-07T10:36:51.440Z,14.40
2022-11-07T10:39:39.120Z,14.60
2022-11-07T10:42:28.486Z,14.60
2022-11-07T10:45:17.350Z,14.60
2022-11-07T10:48:05.859Z,14.70
2022-11-07T10:50:53.947Z,14.80
2022-11-07T10:53:45.781Z,15.60
2022-11-07T10:56:44.422Z,15.00
2022-11-07T10:59:36.525Z,15.20
2022-11-07T11:02:26.282Z,15.20
2022-11-07T11:05:24.539Z,15.30
2022-11-07T11:08:16.216Z,15.40
2022-11-07T11:11:14.078Z,15.30
2022-11-07T11:14:02.528Z,15.20
2022-11-07T11:16:53.055Z,15.10
2022-11-07T11:19:41.797Z,15.10
2022-11-07T11:22:30.405Z,15.10
2022-11-07T11:25:18.955Z,15.10
2022-11-07T11:28:11.567Z,15.20
2022-11-07T11:31:00.201Z,15.20
2022-11-07T11:33:49.766Z,15.20
2022-11-07T11:36:39.490Z,15.20
2022-11-07T11:39:29.823Z,15.20
2022-11-07T11:42:22.240Z,15.10
2022-11-07T11:48:03.245Z,15.00
2022-11-07T11:50:53.218Z,14.90
2022-11-07T11:53:41.090Z,14.80
2022-11-07T11:56:38.883Z,14.70
2022-11-07T11:59:33.652Z,14.60
2022-11-07T12:02:34.149Z,14.60
2022-11-07T12:05:36.417Z,14.60
2022-11-07T12:11:14.491Z,14.60
2022-11-07T12:14:06.115Z,14.60
2022-11-07T12:16:56.992Z,14.60
2022-11-07T12:19:48.423Z,14.50
2022-11-07T12:22:44.886Z,14.50
2022-11-07T12:25:38.759Z,14.90
2022-11-07T12:28:32.134Z,14.60
2022-11-07T12:31:33.904Z,14.70
2022-11-07T12:34:27.666Z,14.80
2022-11-07T12:37:29.331Z,14.90
2022-11-07T12:40:27.033Z,15.00
2022-11-07T12:43:20.587Z,15.10
2022-11-07T12:46:10.605Z,15.10
2022-11-07T12:49:25.002Z,15.10
2022-11-07T12:52:18.775Z,14.90
2022-11-07T12:55:15.526Z,15.20
2022-11-07T12:58:05.434Z,15.40
2022-11-07T13:00:54.008Z,15.40
2022-11-07T13:03:52.116Z,15.50
2022-11-07T13:06:43.588Z,15.40
2022-11-07T13:09:33.208Z,13.60
2022-11-07T13:12:24.442Z,15.40
2022-11-07T13:15:14.138Z,15.50
2022-11-07T13:18:01.870Z,15.50
2022-11-07T13:20:59.742Z,15.60
2022-11-07T13:23:48.238Z,15.60
2022-11-07T13:26:50.886Z,15.60
2022-11-07T13:29:40.613Z,15.60
2022-11-07T13:32:39.448Z,15.60
2022-11-07T13:35:27.798Z,15.70
2022-11-07T13:38:17.836Z,15.70
2022-11-07T13:41:06.324Z,15.70
2022-11-07T13:43:55.793Z,15.60
2022-11-07T13:46:45.164Z,15.60
2022-11-07T13:49:41.360Z,15.70
2022-11-07T13:52:36.975Z,15.90
2022-11-07T13:55:26.104Z,15.80
2022-11-07T13:58:15.636Z,15.70
2022-11-07T14:01:10.206Z,15.60
2022-11-07T14:03:58.024Z,15.50
2022-11-07T14:06:47.375Z,15.40
2022-11-07T14:09:35.960Z,15.40
2022-11-07T14:12:24.542Z,15.20
2022-11-07T14:15:15.031Z,15.20
2022-11-07T14:18:03.311Z,15.20
2022-11-07T14:20:51.417Z,15.20
2022-11-07T14:23:48.724Z,15.00
2022-11-07T14:26:41.406Z,15.00
2022-11-07T14:29:31.725Z,15.00
2022-11-07T14:32:20.035Z,14.90
2022-11-07T14:35:09.408Z,14.80
2022-11-07T14:37:57.543Z,14.80
2022-11-07T14:40:46.696Z,14.70
2022-11-07T14:43:35.763Z,14.70
2022-11-07T14:46:24.934Z,14.70
2022-11-07T14:49:17.703Z,14.70
2022-11-07T14:52:06.037Z,14.60
2022-11-07T14:54:56.785Z,14.60
2022-11-07T14:57:45.819Z,14.60
2022-11-07T15:00:34.406Z,14.70
2022-11-07T15:03:23.037Z,14.70
2022-11-07T15:06:21.717Z,14.70
2022-11-07T15:09:09.702Z,14.80
2022-11-07T15:11:58.495Z,14.80
2022-11-07T15:14:49.941Z,14.80
2022-11-07T15:17:44.754Z,14.80
2022-11-07T15:20:39.848Z,14.80
2022-11-07T15:23:31.996Z,14.80
2022-11-07T15:26:22.251Z,14.80
2022-11-07T15:29:16.874Z,14.80
2022-11-07T15:32:13.482Z,14.70
2022-11-07T15:35:17.528Z,14.70
2022-11-07T15:38:08.709Z,14.70
2022-11-07T15:40:56.399Z,14.60
2022-11-07T15:43:45.243Z,14.60
2022-11-07T15:46:35.207Z,14.60
2022-11-07T15:49:24.468Z,14.50
2022-11-07T15:52:12.660Z,14.50
2022-11-07T15:54:59.925Z,14.50
2022-11-07T15:57:48.609Z,14.50
2022-11-07T16:00:36.026Z,14.50
2022-11-07T16:03:24.663Z,14.40
2022-11-07T16:06:18.574Z,14.40
2022-11-07T16:09:10.893Z,14.40
2022-11-07T16:11:58.003Z,14.40
2022-11-07T16:14:45.504Z,14.40
2022-11-07T16:17:33.355Z,14.40
2022-11-07T16:20:22.754Z,14.40
2022-11-07T16:23:12.545Z,14.40
2022-11-07T16:25:59.971Z,14.40
2022-11-07T16:28:47.269Z,14.30
2022-11-07T16:31:35.210Z,14.30
2022-11-07T16:34:22.661Z,14.20
2022-11-07T16:37:11.050Z,14.20
2022-11-07T16:40:00.068Z,14.30
2022-11-07T16:42:47.649Z,14.30
2022-11-07T16:45:36.288Z,14.30
2022-11-07T16:48:25.551Z,14.20
2022-11-07T16:51:16.160Z,14.20
2022-11-07T16:54:03.954Z,14.20
2022-11-07T16:56:53.425Z,14.20
2022-11-07T16:59:41.357Z,14.10
2022-11-07T17:02:28.841Z,14.10
2022-11-07T17:05:16.641Z,14.00
2022-11-07T17:08:05.367Z,14.00
2022-11-07T17:10:53.660Z,13.90
2022-11-07T17:13:42.583Z,13.80
2022-11-07T17:16:34.766Z,12.00
2022-11-07T17:19:24.313Z,13.70
2022-11-07T17:22:12.177Z,13.70
2022-11-07T17:24:59.555Z,13.70
2022-11-07T17:27:47.585Z,13.60
2022-11-07T17:30:36.363Z,13.60
2022-11-07T17:33:24.400Z,13.60
2022-11-07T17:36:20.318Z,13.60
2022-11-07T17:39:11.628Z,13.50
2022-11-07T17:41:59.564Z,13.50
2022-11-07T17:44:46.984Z,13.50
2022-11-07T17:47:36.397Z,13.60
2022-11-07T17:50:24.025Z,13.60
2022-11-07T17:53:12.247Z,13.60
2022-11-07T17:55:59.634Z,13.60
2022-11-07T17:58:47.088Z,12.80
2022-11-07T18:01:35.733Z,13.60
2022-11-07T18:04:25.151Z,13.70
2022-11-07T18:07:12.964Z,13.70
2022-11-07T18:10:01.944Z,13.60
2022-11-07T18:12:49.658Z,13.70
2022-11-07T18:15:38.621Z,13.70
2022-11-07T18:18:27.308Z,13.70
2022-11-07T18:21:16.489Z,13.60
2022-11-07T18:24:03.982Z,13.30
2022-11-07T18:26:54.275Z,13.60
2022-11-07T18:29:42.417Z,13.60
2022-11-07T18:32:35.815Z,13.50
2022-11-07T18:35:23.555Z,13.50
2022-11-07T18:38:14.838Z,13.50
2022-11-07T18:41:04.096Z,13.50
2022-11-07T18:43:53.908Z,13.60
2022-11-07T18:46:41.560Z,13.50
2022-11-07T18:49:29.129Z,13.40
2022-11-07T18:52:16.880Z,13.40
2022-11-07T18:55:05.733Z,13.40
2022-11-07T18:57:53.386Z,13.30
2022-11-07T19:00:40.862Z,13.30
2022-11-07T19:03:28.755Z,13.20
2022-11-07T19:06:17.633Z,13.10
2022-11-07T19:09:05.625Z,13.10
2022-11-07T19:11:55.299Z,13.10
2022-11-07T19:14:43.372Z,13.10
2022-11-07T19:17:31.387Z,13.10
2022-11-07T19:20:20.271Z,13.00
2022-11-07T19:23:08.491Z,11.20
2022-11-07T19:25:56.371Z,12.90
2022-11-07T19:28:48.113Z,12.90
2022-11-07T19:31:35.901Z,12.90
2022-11-07T19:34:25.795Z,12.90
2022-11-07T19:37:13.262Z,12.90
2022-11-07T19:40:01.100Z,12.70
2022-11-07T19:42:48.485Z,12.80
2022-11-07T19:45:41.454Z,12.80
2022-11-07T19:48:29.156Z,12.70
2022-11-07T19:51:21.536Z,12.70
2022-11-07T19:54:11.029Z,12.70
2022-11-07T19:56:58.291Z,12.70
2022-11-07T19:59:46.187Z,12.60
2022-11-07T20:02:40.042Z,12.70
2022-11-07T20:05:34.419Z,12.60
2022-11-07T20:08:22.069Z,12.60
2022-11-07T20:11:09.778Z,13.40
2022-11-07T20:14:02.973Z,12.60
2022-11-07T20:16:51.309Z,12.60
2022-11-07T20:19:40.411Z,12.50
2022-11-07T20:22:28.704Z,12.50
2022-11-07T20:25:16.036Z,12.50
2022-11-07T20:28:03.563Z,12.50
2022-11-07T20:30:50.701Z,12.50
2022-11-07T20:33:38.181Z,12.50
2022-11-07T20:36:27.393Z,12.40
2022-11-07T20:39:15.001Z,12.40
2022-11-07T20:42:03.083Z,12.40
2022-11-07T20:44:51.792Z,12.40
2022-11-07T20:47:39.717Z,12.40
2022-11-07T20:50:27.197Z,12.40
2022-11-07T20:53:19.646Z,12.20
2022-11-07T20:56:07.963Z,12.30
2022-11-07T20:58:56.925Z,12.30
2022-11-07T21:01:45.003Z,12.30
2022-11-07T21:04:49.947Z,12.20
2022-11-07T21:07:40.064Z,12.20
2022-11-07T21:10:28.643Z,12.20
2022-11-07T21:13:16.734Z,12.20
2022-11-07T21:16:04.684Z,12.20
2022-11-07T21:18:52.332Z,12.10
2022-11-07T21:21:39.684Z,12.10
2022-11-07T21:24:32.249Z,12.10
2022-11-07T21:27:24.645Z,12.10
2022-11-07T21:30:13.222Z,12.10
2022-11-07T21:33:00.813Z,12.10
2022-11-07T21:35:48.362Z,12.10
2022-11-07T21:38:36.442Z,11.90
2022-11-07T21:41:24.955Z,11.80
2022-11-07T21:44:14.534Z,11.80
2022-11-07T21:47:01.791Z,11.70
2022-11-07T21:49:50.434Z,11.60
2022-11-07T21:52:37.971Z,11.40
2022-11-07T21:55:25.394Z,11.40
2022-11-07T21:58:13.420Z,11.30
2022-11-07T22:01:03.986Z,11.50
2022-11-07T22:04:06.781Z,11.20
2022-11-07T22:06:56.222Z,11.30
2022-11-07T22:09:43.551Z,11.20
2022-11-07T22:12:31.299Z,11.20
2022-11-07T22:15:19.052Z,11.10
2022-11-07T22:18:07.626Z,11.10
2022-11-07T22:20:57.097Z,11.00
2022-11-07T22:23:45.314Z,11.00
2022-11-07T22:26:33.287Z,11.00
2022-11-07T22:29:21.327Z,11.00
2022-11-07T22:32:08.778Z,10.80
2022-11-07T22:34:58.601Z,11.00
2022-11-07T22:37:46.559Z,11.00
2022-11-07T22:40:34.260Z,10.90
2022-11-07T22:43:22.162Z,10.90
2022-11-07T22:46:11.838Z,10.90
2022-11-07T22:48:59.675Z,11.00
2022-11-07T22:51:48.859Z,10.90
2022-11-07T22:54:36.798Z,9.80
2022-11-07T22:57:24.833Z,10.90
2022-11-07T23:00:21.545Z,10.80
2022-11-07T23:03:10.342Z,10.70
2022-11-07T23:05:59.187Z,10.70
2022-11-07T23:08:49.620Z,10.70
2022-11-07T23:11:45.770Z,10.60
2022-11-07T23:14:34.636Z,10.60
2022-11-07T23:17:21.953Z,10.60
2022-11-07T23:20:10.779Z,10.50
2022-11-07T23:22:58.562Z,10.50
2022-11-07T23:25:47.539Z,8.50
2022-11-07T23:28:35.667Z,10.40
2022-11-07T23:31:23.329Z,10.40
2022-11-07T23:34:11.537Z,10.30
2022-11-07T23:37:03.296Z,10.30
2022-11-07T23:39:51.126Z,10.30
2022-11-07T23:42:40.983Z,10.30
2022-11-07T23:45:48.811Z,10.30
2022-11-07T23:48:54.251Z,10.20
2022-11-07T23:51:43.713Z,10.20
2022-11-07T23:54:48.610Z,10.10
2022-11-07T23:57:57.195Z,10.10
